Time;durP1;ratioP1;P1;durP2;ratioP2;P2;SDS_P1;SDS_P2;PMS_P1;PMS_P2;Temp;Humidity;BMP_temperature;BMP_pressure;BME280_temperature;BME280_humidity;BME280_pressure;Samples;Min_cycle;Max_cycle;Signal;HPM_P1;HPM_P2
2023/10/08 05:32:37;;;;;;;5.22;1.63;;;8.00;99.90;;;;;;5051835;28;20103;-78
2023/10/08 05:38:02;;;;;;;2.95;1.70;;;8.00;99.90;;;;;;5041973;28;20695;-86
2023/10/08 05:43:33;;;;;;;5.20;1.65;;;8.10;99.90;;;;;;5031523;28;20461;-81
2023/10/08 05:46:35;;;;;;;4.10;1.75;;;8.00;99.90;;;;;;5032984;28;20030;-84
2023/10/08 05:48:46;;;;;;;3.97;1.90;;;8.00;99.90;;;;;;5032998;28;20071;-79
2023/10/08 05:51:33;;;;;;;3.65;2.47;;;8.00;99.90;;;;;;5033349;28;20049;-84
2023/10/08 05:53:59;;;;;;;3.53;1.85;;;8.00;99.90;;;;;;5030204;28;20532;-84
2023/10/08 05:56:42;;;;;;;6.22;1.85;;;8.00;99.90;;;;;;5032362;28;20017;-84
2023/10/08 05:59:18;;;;;;;3.42;1.73;;;8.10;99.90;;;;;;5029824;28;20515;-80
2023/10/08 06:01:46;;;;;;;2.95;1.50;;;8.10;99.90;;;;;;5038012;28;20025;-84
2023/10/08 06:04:42;;;;;;;5.97;1.80;;;8.10;99.90;;;;;;5047156;28;20107;-78
2023/10/08 06:07:17;;;;;;;1.88;1.42;;;8.10;99.90;;;;;;5031983;28;20021;-83
2023/10/08 06:09:50;;;;;;;3.72;1.77;;;8.10;99.90;;;;;;5033197;28;20120;-84
2023/10/08 06:12:29;;;;;;;5.13;2.20;;;8.10;99.90;;;;;;5038437;28;20078;-84
2023/10/08 06:15:07;;;;;;;3.90;1.80;;;8.10;99.90;;;;;;5045747;28;20363;-79
2023/10/08 06:20:25;;;;;;;5.80;2.20;;;8.20;99.90;;;;;;5032591;28;20083;-79
2023/10/08 06:22:52;;;;;;;;;;;8.10;99.90;;;;;;5038473;28;20560;-86
2023/10/08 06:25:23;;;;;;;3.78;1.70;;;8.20;99.90;;;;;;5037567;28;20366;-79
2023/10/08 06:27:53;;;;;;;3.58;1.60;;;8.10;99.90;;;;;;5033578;28;20021;-86
2023/10/08 06:30:19;;;;;;;5.57;2.10;;;8.10;99.90;;;;;;5044639;28;20089;-86
2023/10/08 06:32:45;;;;;;;5.07;1.85;;;8.20;99.90;;;;;;5054542;28;20048;-81
2023/10/08 06:35:24;;;;;;;2.72;1.70;;;8.10;99.90;;;;;;5055420;28;20064;-80
2023/10/08 06:37:54;;;;;;;3.47;1.63;;;8.20;99.90;;;;;;5056248;28;20052;-80
2023/10/08 06:40:40;;;;;;;6.15;1.92;;;8.20;99.90;;;;;;5046248;28;20032;-80
2023/10/08 06:43:16;;;;;;;3.17;1.63;;;8.20;99.90;;;;;;5047311;28;20028;-85
2023/10/08 06:45:44;;;;;;;7.15;1.90;;;8.20;99.90;;;;;;5052331;28;20064;-85
2023/10/08 06:48:17;;;;;;;3.78;2.03;;;8.20;99.90;;;;;;5052080;28;20501;-81
2023/10/08 06:50:47;;;;;;;5.45;2.10;;;8.30;99.90;;;;;;5050867;28;20032;-80
2023/10/08 06:53:14;;;;;;;6.20;2.13;;;8.30;99.90;;;;;;5050165;28;20045;-80
2023/10/08 06:55:43;;;;;;;5.05;1.77;;;8.30;99.90;;;;;;5047901;28;20108;-80
2023/10/08 06:58:09;;;;;;;4.68;1.85;;;8.20;99.90;;;;;;5048145;28;20020;-80
2023/10/08 07:00:39;;;;;;;4.55;1.95;;;8.30;99.90;;;;;;5066634;28;20051;-79
2023/10/08 07:03:14;;;;;;;4.10;1.98;;;8.20;99.90;;;;;;5052769;28;20116;-80
2023/10/08 07:05:41;;;;;;;5.75;2.40;;;8.30;99.90;;;;;;5065973;28;20027;-80
2023/10/08 07:08:14;;;;;;;9.65;2.70;;;8.30;99.90;;;;;;5056518;28;20462;-80
2023/10/08 07:10:45;;;;;;;10.88;3.00;;;8.30;99.90;;;;;;5055795;28;20466;-80
2023/10/08 07:13:11;;;;;;;8.38;2.65;;;8.40;99.90;;;;;;5060960;28;20039;-80
2023/10/08 07:15:38;;;;;;;5.85;2.70;;;8.40;99.90;;;;;;5057860;28;20026;-80
2023/10/08 07:18:09;;;;;;;5.78;2.55;;;8.30;99.90;;;;;;5065359;28;20028;-80
2023/10/08 07:20:39;;;;;;;7.97;2.85;;;8.30;99.90;;;;;;5066584;28;20021;-80
2023/10/08 07:23:35;;;;;;;6.18;2.50;;;8.30;99.90;;;;;;5068683;28;20052;-80
2023/10/08 07:26:11;;;;;;;4.75;2.97;;;8.40;99.90;;;;;;5054379;28;20048;-85
2023/10/08 07:28:41;;;;;;;11.18;3.03;;;8.40;99.90;;;;;;5060503;28;20055;-84
2023/10/08 07:31:20;;;;;;;4.30;2.40;;;8.40;99.90;;;;;;5057867;28;20076;-86
2023/10/08 07:33:56;;;;;;;6.28;2.85;;;8.40;99.90;;;;;;5053387;28;20025;-86
2023/10/08 07:36:31;;;;;;;6.95;3.85;;;8.40;99.90;;;;;;5066414;28;20027;-85
2023/10/08 07:38:57;;;;;;;5.95;3.17;;;8.50;99.90;;;;;;5055069;28;20048;-80
2023/10/08 07:41:23;;;;;;;6.80;2.97;;;8.50;99.90;;;;;;5059102;28;20080;-80
2023/10/08 07:43:55;;;;;;;9.68;3.30;;;8.60;99.90;;;;;;5069881;28;20370;-80
2023/10/08 07:46:27;;;;;;;9.43;4.57;;;8.70;99.90;;;;;;5069044;28;20020;-85
2023/10/08 07:48:54;;;;;;;5.95;3.10;;;8.70;99.90;;;;;;5060629;28;20111;-80
2023/10/08 07:51:23;;;;;;;5.15;3.42;;;8.70;99.90;;;;;;5055819;28;20382;-80
2023/10/08 07:53:55;;;;;;;5.80;3.30;;;8.80;99.90;;;;;;5051827;28;20021;-80
2023/10/08 07:56:23;;;;;;;9.05;3.85;;;9.00;99.90;;;;;;5045989;28;20025;-79
2023/10/08 07:58:49;;;;;;;7.03;3.70;;;9.20;99.90;;;;;;5062422;28;20059;-85
2023/10/08 08:01:15;;;;;;;5.00;3.17;;;9.30;99.90;;;;;;5054128;28;20013;-79
2023/10/08 08:03:41;;;;;;;5.85;3.42;;;9.60;99.90;;;;;;5052805;28;20025;-85
2023/10/08 08:06:10;;;;;;;7.53;3.33;;;9.70;99.90;;;;;;5053304;28;20474;-85
2023/10/08 08:08:37;;;;;;;8.95;3.78;;;9.90;99.90;;;;;;5053505;28;20025;-79
2023/10/08 08:11:07;;;;;;;6.55;3.00;;;10.00;99.90;;;;;;5043922;28;20021;-85
2023/10/08 08:13:35;;;;;;;6.15;3.28;;;10.00;99.90;;;;;;5066305;28;20462;-85
2023/10/08 08:16:16;;;;;;;6.20;2.85;;;10.10;99.90;;;;;;5055274;28;20471;-80
2023/10/08 08:18:45;;;;;;;11.00;3.20;;;10.00;99.90;;;;;;5055211;28;20025;-85
2023/10/08 08:21:19;;;;;;;4.00;2.88;;;9.90;99.90;;;;;;5054734;28;20029;-85
2023/10/08 08:23:47;;;;;;;7.10;3.67;;;9.70;99.90;;;;;;5056801;28;20114;-85
2023/10/08 08:26:27;;;;;;;6.28;3.47;;;9.70;99.90;;;;;;5062503;28;20102;-85
2023/10/08 08:28:57;;;;;;;5.63;4.35;;;9.80;99.90;;;;;;5067589;28;20363;-85
2023/10/08 08:31:25;;;;;;;7.88;4.10;;;9.80;99.90;;;;;;5060901;28;20033;-85
2023/10/08 08:33:56;;;;;;;7.63;4.57;;;9.80;99.90;;;;;;5070042;28;20064;-86
2023/10/08 08:36:22;;;;;;;5.43;3.60;;;10.00;99.90;;;;;;5062578;28;20018;-85
2023/10/08 08:38:48;;;;;;;4.35;2.92;;;10.20;99.90;;;;;;5068522;28;20108;-85
2023/10/08 08:41:17;;;;;;;2.83;2.53;;;10.30;99.90;;;;;;5063286;28;20466;-85
2023/10/08 08:43:47;;;;;;;4.20;2.92;;;10.50;99.90;;;;;;5059088;28;20024;-79
2023/10/08 08:46:13;;;;;;;3.80;2.55;;;10.60;99.90;;;;;;5058971;28;20423;-80
2023/10/08 08:48:42;;;;;;;2.45;2.25;;;10.20;99.90;;;;;;5054935;28;20056;-85
2023/10/08 08:51:09;;;;;;;2.97;2.03;;;10.20;99.90;;;;;;5059034;28;20036;-80
2023/10/08 08:53:39;;;;;;;6.63;2.80;;;10.40;99.90;;;;;;5054188;28;20441;-79
2023/10/08 08:56:12;;;;;;;7.05;3.22;;;10.50;99.90;;;;;;5065208;28;20021;-79
2023/10/08 08:58:39;;;;;;;4.85;2.50;;;10.50;94.00;;;;;;5062398;28;20013;-85
2023/10/08 09:01:12;;;;;;;3.08;2.08;;;10.70;98.20;;;;;;5057743;28;20032;-85
2023/10/08 09:03:39;;;;;;;3.58;2.67;;;10.60;91.90;;;;;;5052333;28;20425;-84
2023/10/08 09:06:05;;;;;;;2.75;2.20;;;10.40;87.60;;;;;;5052831;28;20108;-84
2023/10/08 09:08:37;;;;;;;3.80;2.47;;;10.40;85.10;;;;;;5053224;28;20009;-85
2023/10/08 09:11:08;;;;;;;3.95;2.97;;;10.20;85.80;;;;;;5049914;28;20067;-84
2023/10/08 09:13:34;;;;;;;5.28;2.25;;;10.50;87.20;;;;;;5052235;28;20040;-79
2023/10/08 09:16:16;;;;;;;2.55;2.08;;;10.40;76.80;;;;;;5056972;28;20016;-84
2023/10/08 09:18:47;;;;;;;3.60;2.00;;;10.60;78.50;;;;;;5057980;28;20024;-84
2023/10/08 09:21:22;;;;;;;2.22;1.90;;;10.60;75.10;;;;;;5052049;28;20033;-79
2023/10/08 09:23:54;;;;;;;4.53;2.60;;;10.60;76.50;;;;;;5052675;28;20124;-85
2023/10/08 09:26:23;;;;;;;3.72;2.20;;;10.40;84.90;;;;;;5056588;28;20025;-80
2023/10/08 09:28:51;;;;;;;6.40;2.47;;;10.60;89.30;;;;;;5053594;28;20032;-79
2023/10/08 09:31:17;;;;;;;4.10;2.00;;;10.50;81.40;;;;;;5052458;28;20509;-84
2023/10/08 09:33:53;;;;;;;3.40;1.67;;;10.60;76.40;;;;;;5054870;28;20029;-84
2023/10/08 09:36:19;;;;;;;3.38;1.80;;;10.40;72.20;;;;;;5054206;28;20024;-79
2023/10/08 09:38:49;;;;;;;4.03;1.90;;;10.60;72.70;;;;;;5052017;28;20025;-85
2023/10/08 09:41:15;;;;;;;1.90;1.58;;;10.70;75.40;;;;;;5053159;28;20115;-79
2023/10/08 09:43:41;;;;;;;7.28;2.38;;;10.50;74.80;;;;;;5052772;28;20025;-79
2023/10/08 09:46:19;;;;;;;1.88;1.40;;;10.70;79.20;;;;;;5059715;28;20082;-84
2023/10/08 09:48:53;;;;;;;1.98;1.20;;;10.50;71.00;;;;;;5054755;28;20069;-84
2023/10/08 09:51:18;;;;;;;1.52;1.30;;;10.30;62.60;;;;;;5056617;28;20497;-84
2023/10/08 09:54:13;;;;;;;2.88;1.30;;;10.30;64.30;;;;;;5051660;28;20021;-78
2023/10/08 09:56:40;;;;;;;4.78;1.58;;;10.40;66.70;;;;;;5047842;28;20025;-85
2023/10/08 09:59:10;;;;;;;2.15;1.80;;;10.50;67.20;;;;;;5046567;28;20030;-79
2023/10/08 10:01:40;;;;;;;1.38;1.00;;;10.50;66.70;;;;;;5053492;28;20024;-85
2023/10/08 10:04:10;;;;;;;2.70;1.40;;;10.50;65.20;;;;;;5070694;28;20149;-79
2023/10/08 10:06:36;;;;;;;4.20;1.80;;;10.50;65.00;;;;;;5046486;28;20488;-79
2023/10/08 10:09:06;;;;;;;2.50;1.65;;;10.60;65.90;;;;;;5071170;28;20020;-79
2023/10/08 10:11:35;;;;;;;3.90;1.27;;;10.70;68.20;;;;;;5070858;28;20036;-84
2023/10/08 10:14:06;;;;;;;4.00;1.50;;;10.80;67.90;;;;;;5074059;28;20035;-86
2023/10/08 10:16:32;;;;;;;1.95;1.35;;;10.50;63.90;;;;;;5069847;28;20493;-79
2023/10/08 10:19:00;;;;;;;1.77;1.35;;;10.70;64.60;;;;;;5069897;28;20052;-79
2023/10/08 10:21:33;;;;;;;3.10;1.20;;;10.80;63.60;;;;;;5071034;28;20111;-84
2023/10/08 10:23:59;;;;;;;3.03;1.50;;;11.00;62.70;;;;;;5066923;28;20025;-79
2023/10/08 10:26:30;;;;;;;2.50;1.00;;;10.90;61.20;;;;;;5071046;28;20524;-85
2023/10/08 10:29:10;;;;;;;3.28;1.00;;;10.80;60.60;;;;;;5063148;28;20032;-78
2023/10/08 10:31:44;;;;;;;1.45;1.00;;;10.60;59.50;;;;;;5059438;28;20049;-85
2023/10/08 10:34:12;;;;;;;1.40;1.15;;;10.60;58.70;;;;;;5070822;28;20445;-82
2023/10/08 10:36:39;;;;;;;1.70;1.05;;;10.80;59.30;;;;;;5069943;28;20020;-76
2023/10/08 10:39:16;;;;;;;4.18;1.40;;;10.70;58.30;;;;;;5070951;28;20110;-76
2023/10/08 10:41:48;;;;;;;3.97;1.15;;;10.70;58.20;;;;;;5071258;28;20021;-82
2023/10/08 10:44:15;;;;;;;1.65;1.45;;;10.60;58.80;;;;;;5070017;28;20021;-82
2023/10/08 10:46:52;;;;;;;2.25;1.02;;;10.80;60.40;;;;;;5069937;28;20055;-78
2023/10/08 10:49:21;;;;;;;1.35;0.95;;;10.70;57.90;;;;;;5072100;28;20074;-79
2023/10/08 10:51:57;;;;;;;3.85;1.30;;;10.70;58.00;;;;;;5059806;28;20059;-79
2023/10/08 10:54:26;;;;;;;2.75;1.60;;;10.80;57.30;;;;;;5061169;28;20029;-85
2023/10/08 10:57:03;;;;;;;2.92;1.25;;;10.70;58.20;;;;;;5054949;28;20075;-78
2023/10/08 10:59:37;;;;;;;2.28;1.50;;;10.60;58.60;;;;;;5054820;28;20064;-84
2023/10/08 11:05:07;;;;;;;2.10;1.10;;;10.70;59.10;;;;;;5056703;28;20394;-78
2023/10/08 11:07:34;;;;;;;1.70;1.60;;;10.70;59.70;;;;;;5065957;28;20070;-78
2023/10/08 11:10:00;;;;;;;3.30;1.58;;;10.60;60.10;;;;;;5073973;28;20023;-85
2023/10/08 11:12:42;;;;;;;3.05;0.95;;;10.60;61.10;;;;;;5052209;28;20068;-78
2023/10/08 11:15:15;;;;;;;2.22;1.35;;;10.60;61.20;;;;;;5053751;28;20386;-79
2023/10/08 11:17:42;;;;;;;1.48;1.20;;;10.50;58.50;;;;;;5054543;28;20021;-85
2023/10/08 11:20:27;;;;;;;2.78;1.17;;;10.40;58.10;;;;;;5054428;28;20013;-79
2023/10/08 11:23:01;;;;;;;2.00;1.17;;;10.40;58.80;;;;;;5064957;28;20423;-85
2023/10/08 11:25:30;;;;;;;2.13;1.50;;;10.40;59.90;;;;;;5059202;28;20391;-85
2023/10/08 11:28:02;;;;;;;2.63;1.35;;;10.50;61.50;;;;;;5063603;28;20036;-84
2023/10/08 11:30:31;;;;;;;1.60;1.50;;;10.60;62.30;;;;;;5074880;28;20043;-78
2023/10/08 11:33:00;;;;;;;3.05;1.65;;;10.70;62.50;;;;;;5073483;28;20075;-79
2023/10/08 11:35:27;;;;;;;2.58;1.30;;;10.70;60.80;;;;;;5073092;28;20051;-85
2023/10/08 11:38:00;;;;;;;1.92;1.73;;;10.50;58.90;;;;;;5074976;28;20036;-85
2023/10/08 11:40:47;;;;;;;3.33;1.40;;;10.50;58.60;;;;;;5074332;28;20021;-85
2023/10/08 11:43:15;;;;;;;2.40;1.25;;;10.30;58.90;;;;;;5048756;28;20572;-86
2023/10/08 11:45:48;;;;;;;2.15;1.42;;;10.20;57.70;;;;;;5073585;28;20012;-86
2023/10/08 11:48:25;;;;;;;1.92;1.10;;;10.10;57.70;;;;;;5074347;28;20028;-79
2023/10/08 11:50:51;;;;;;;3.85;1.23;;;10.20;57.10;;;;;;5066978;28;20021;-80
2023/10/08 11:53:19;;;;;;;2.20;1.30;;;10.20;55.30;;;;;;5071432;28;20032;-79
2023/10/08 11:55:47;;;;;;;4.93;1.75;;;10.30;54.50;;;;;;5073399;28;20025;-79
2023/10/08 11:58:17;;;;;;;3.15;1.20;;;10.40;54.70;;;;;;5043001;28;20405;-79
2023/10/08 12:00:44;;;;;;;1.10;1.00;;;10.50;55.50;;;;;;5045287;28;20078;-85
2023/10/08 12:03:17;;;;;;;2.13;0.90;;;10.50;55.00;;;;;;5053549;28;20044;-85
2023/10/08 12:05:47;;;;;;;1.52;0.82;;;10.50;54.10;;;;;;5054700;28;20025;-79
2023/10/08 12:08:20;;;;;;;2.67;0.93;;;10.50;53.10;;;;;;5054877;28;20091;-86
2023/10/08 12:10:47;;;;;;;3.30;1.10;;;10.60;53.10;;;;;;5062856;28;20031;-85
2023/10/08 12:13:16;;;;;;;1.35;0.90;;;10.60;52.10;;;;;;5048358;28;20041;-85
2023/10/08 12:15:44;;;;;;;2.20;0.95;;;10.40;51.70;;;;;;5055186;28;20103;-79
2023/10/08 12:21:10;;;;;;;2.08;0.80;;;10.40;52.50;;;;;;5050333;28;20041;-85
2023/10/08 12:23:39;;;;;;;2.90;1.02;;;10.40;51.70;;;;;;5055540;28;20033;-79
2023/10/08 12:26:07;;;;;;;9.90;1.60;;;10.40;50.50;;;;;;5055286;28;20032;-79
2023/10/08 12:28:34;;;;;;;1.30;1.08;;;10.30;49.90;;;;;;5062291;28;20028;-85
2023/10/08 12:31:00;;;;;;;3.00;1.00;;;10.30;50.50;;;;;;5057483;28;20064;-86
2023/10/08 12:33:28;;;;;;;3.58;0.88;;;10.30;51.40;;;;;;5058899;28;20390;-85
2023/10/08 12:35:55;;;;;;;2.35;1.17;;;10.30;51.90;;;;;;5061488;28;20367;-85
2023/10/08 12:38:22;;;;;;;1.10;1.00;;;10.40;51.30;;;;;;5056581;28;20380;-86
2023/10/08 12:40:53;;;;;;;2.78;1.17;;;10.40;52.30;;;;;;5055084;28;20025;-79
2023/10/08 12:43:20;;;;;;;2.03;0.90;;;10.50;53.20;;;;;;5066573;28;20045;-86
2023/10/08 12:45:53;;;;;;;1.55;1.25;;;10.40;50.40;;;;;;5054010;28;20025;-86
2023/10/08 12:48:24;;;;;;;1.77;1.55;;;10.50;50.60;;;;;;5056665;28;20435;-85
2023/10/08 12:50:53;;;;;;;2.17;0.85;;;10.60;50.80;;;;;;5060319;28;20017;-79
2023/10/08 12:53:36;;;;;;;3.60;1.45;;;10.60;50.20;;;;;;5058596;28;20045;-85
2023/10/08 12:56:06;;;;;;;3.55;1.23;;;10.60;50.00;;;;;;5049293;28;20018;-80
2023/10/08 12:58:48;;;;;;;1.48;0.95;;;10.50;49.50;;;;;;5061427;28;20048;-85
2023/10/08 13:01:17;;;;;;;2.15;1.38;;;10.50;50.00;;;;;;5072442;28;20476;-85
2023/10/08 13:03:49;;;;;;;2.97;1.00;;;10.40;49.40;;;;;;5072731;28;20024;-79
2023/10/08 13:06:28;;;;;;;1.77;1.00;;;10.50;50.40;;;;;;5071041;28;20012;-80
2023/10/08 13:08:54;;;;;;;2.47;1.13;;;10.60;51.50;;;;;;5056478;28;20040;-86
2023/10/08 13:11:25;;;;;;;1.10;1.00;;;10.60;49.80;;;;;;5054566;28;20040;-86
2023/10/08 13:13:56;;;;;;;1.88;1.20;;;10.60;50.00;;;;;;5064640;28;20073;-85
2023/10/08 13:16:31;;;;;;;1.33;0.90;;;10.50;49.80;;;;;;5071319;28;20446;-86
2023/10/08 13:18:58;;;;;;;2.22;1.10;;;10.50;51.30;;;;;;5069512;28;20017;-79
2023/10/08 13:21:25;;;;;;;1.60;1.10;;;10.40;51.80;;;;;;5065976;28;20052;-85
2023/10/08 13:23:52;;;;;;;2.72;1.52;;;10.40;52.00;;;;;;5062854;28;20025;-79
2023/10/08 13:26:18;;;;;;;2.17;1.15;;;10.40;51.80;;;;;;5066642;28;20024;-80
2023/10/08 13:28:47;;;;;;;3.13;1.15;;;10.40;52.00;;;;;;5062293;28;20048;-86
2023/10/08 13:31:12;;;;;;;1.95;1.10;;;10.50;52.50;;;;;;5066503;28;20075;-80
2023/10/08 13:33:42;;;;;;;2.65;1.25;;;10.50;52.00;;;;;;5063147;28;20033;-79
2023/10/08 13:36:13;;;;;;;5.05;2.00;;;10.50;52.00;;;;;;5064139;28;20385;-80
2023/10/08 13:38:46;;;;;;;2.75;1.73;;;10.50;52.80;;;;;;5064770;28;20099;-86
2023/10/08 13:41:15;;;;;;;2.38;1.05;;;10.60;53.60;;;;;;5048535;28;20052;-86
2023/10/08 13:43:45;;;;;;;2.05;1.20;;;10.60;53.10;;;;;;5052525;28;20021;-86
2023/10/08 13:46:15;;;;;;;1.45;1.27;;;10.60;53.30;;;;;;5052270;28;20087;-79
2023/10/08 13:48:46;;;;;;;1.25;1.02;;;10.60;52.60;;;;;;5052633;28;20037;-80
2023/10/08 13:51:20;;;;;;;2.35;1.50;;;10.60;51.80;;;;;;5052449;28;20032;-80
2023/10/08 13:53:59;;;;;;;4.55;1.10;;;10.50;50.50;;;;;;5071256;28;20549;-86
2023/10/08 13:56:30;;;;;;;2.17;1.05;;;10.30;49.70;;;;;;5067423;28;20488;-79
2023/10/08 13:59:12;;;;;;;2.20;1.30;;;10.30;50.40;;;;;;5051676;28;20052;-86
2023/10/08 14:01:51;;;;;;;3.35;1.08;;;10.30;50.70;;;;;;5053196;28;20017;-86
2023/10/08 14:04:19;;;;;;;1.80;0.90;;;10.30;49.90;;;;;;5054286;28;20062;-79
2023/10/08 14:06:52;;;;;;;1.65;1.20;;;10.30;50.20;;;;;;5053889;28;20040;-86
2023/10/08 14:09:30;;;;;;;1.40;0.90;;;10.30;49.90;;;;;;5055148;28;20024;-86
2023/10/08 14:11:56;;;;;;;3.17;1.42;;;10.20;49.10;;;;;;5052125;28;20037;-80
2023/10/08 14:14:24;;;;;;;1.27;0.90;;;10.20;47.60;;;;;;5053238;28;20352;-86
2023/10/08 14:16:54;;;;;;;3.08;0.98;;;10.30;48.60;;;;;;5063180;28;20473;-80
2023/10/08 14:19:28;;;;;;;2.05;0.98;;;10.10;47.50;;;;;;5041929;28;20107;-80
2023/10/08 14:22:00;;;;;;;2.50;1.13;;;10.10;48.20;;;;;;5065992;28;20020;-87
2023/10/08 14:24:29;;;;;;;2.83;1.40;;;10.10;49.50;;;;;;5073359;28;20020;-79
2023/10/08 14:26:57;;;;;;;3.90;1.52;;;10.10;49.70;;;;;;5074838;28;20390;-86
2023/10/08 14:29:26;;;;;;;1.75;1.20;;;10.00;49.10;;;;;;5069775;28;20017;-87
2023/10/08 14:31:55;;;;;;;1.67;1.40;;;10.00;49.80;;;;;;5068320;28;20059;-87
2023/10/08 14:42:53;;;;;;;2.22;1.10;;;10.00;50.30;;;;;;5055527;28;20032;-86
2023/10/08 14:45:19;;;;;;;1.20;1.05;;;9.80;51.90;;;;;;5045395;28;20063;-86
2023/10/08 14:47:44;;;;;;;2.60;1.20;;;9.80;51.90;;;;;;5057526;28;20051;-80
2023/10/08 14:50:16;;;;;;;1.52;1.20;;;9.70;52.40;;;;;;5058011;28;20024;-86
2023/10/08 14:52:46;;;;;;;2.90;1.50;;;9.70;52.70;;;;;;5069426;28;20502;-87
2023/10/08 14:55:15;;;;;;;1.63;1.33;;;9.70;52.70;;;;;;5074856;28;20021;-86
2023/10/08 14:57:44;;;;;;;1.58;1.15;;;9.70;53.10;;;;;;5057490;28;20395;-86
2023/10/08 15:00:11;;;;;;;3.42;2.15;;;9.60;53.40;;;;;;5055107;28;20113;-80
2023/10/08 15:02:38;;;;;;;26.38;14.40;;;9.60;53.70;;;;;;5054658;28;20025;-79
2023/10/08 15:05:08;;;;;;;10.05;5.35;;;9.60;53.80;;;;;;5064577;28;20032;-86
2023/10/08 15:07:34;;;;;;;4.00;2.10;;;9.60;54.00;;;;;;5075418;28;20056;-79
2023/10/08 15:10:00;;;;;;;1.80;1.58;;;9.60;54.70;;;;;;5065000;28;20059;-80
2023/10/08 15:12:34;;;;;;;2.65;1.30;;;9.50;54.30;;;;;;5069981;28;20128;-80
2023/10/08 15:15:00;;;;;;;22.05;7.97;;;9.40;54.00;;;;;;5053299;28;20053;-80
2023/10/08 15:17:26;;;;;;;2.22;1.42;;;9.30;54.80;;;;;;5051961;28;20028;-86
2023/10/08 15:19:52;;;;;;;4.30;1.67;;;9.30;54.50;;;;;;5056031;28;20025;-79
2023/10/08 15:22:17;;;;;;;4.40;1.63;;;9.30;54.80;;;;;;5055282;28;20032;-80
2023/10/08 15:24:44;;;;;;;1.30;1.08;;;9.20;54.80;;;;;;5050636;28;20108;-80
2023/10/08 15:27:10;;;;;;;2.55;1.50;;;9.20;55.10;;;;;;5055087;28;20102;-80
2023/10/08 15:29:37;;;;;;;3.00;1.58;;;9.20;55.60;;;;;;5056035;28;20028;-80
2023/10/08 15:32:03;;;;;;;5.32;2.40;;;9.20;56.20;;;;;;5065141;28;20066;-86
2023/10/08 15:34:29;;;;;;;29.15;11.80;;;9.10;56.60;;;;;;5045007;28;20384;-86
2023/10/08 15:36:54;;;;;;;7.63;4.47;;;9.00;57.40;;;;;;5043816;28;20029;-80
2023/10/08 15:39:23;;;;;;;5.53;3.50;;;8.90;57.10;;;;;;5047753;28;20099;-86
2023/10/08 15:41:50;;;;;;;7.15;3.72;;;8.80;57.10;;;;;;5047689;28;20075;-85
2023/10/08 15:44:22;;;;;;;5.22;2.45;;;8.80;57.70;;;;;;5043938;28;20024;-80
2023/10/08 15:46:51;;;;;;;5.20;2.72;;;8.60;58.10;;;;;;5065181;28;20052;-80
2023/10/08 15:49:19;;;;;;;2.83;2.15;;;8.60;58.20;;;;;;5059208;28;20112;-80
2023/10/08 15:51:48;;;;;;;3.22;2.00;;;8.60;58.50;;;;;;5051533;28;20038;-80
2023/10/08 15:54:13;;;;;;;7.25;2.60;;;8.50;58.80;;;;;;5046500;28;20028;-80
2023/10/08 15:56:39;;;;;;;7.07;4.55;;;8.50;59.40;;;;;;5059201;28;20083;-80
2023/10/08 15:59:05;;;;;;;6.72;5.60;;;8.40;59.70;;;;;;5066320;28;20027;-86
2023/10/08 16:01:30;;;;;;;8.95;5.55;;;8.40;60.30;;;;;;5068977;28;20364;-80
2023/10/08 16:03:56;;;;;;;5.32;3.95;;;8.30;61.40;;;;;;5051899;28;20037;-80
2023/10/08 16:06:22;;;;;;;7.40;3.45;;;8.30;63.00;;;;;;5073335;28;20096;-80
2023/10/08 16:08:48;;;;;;;3.03;2.47;;;8.20;64.60;;;;;;5073146;28;20021;-80
2023/10/08 16:11:14;;;;;;;3.53;2.53;;;8.10;65.20;;;;;;5065858;28;20029;-80
2023/10/08 16:13:42;;;;;;;4.50;2.25;;;8.10;66.30;;;;;;5052236;28;20060;-86
2023/10/08 16:16:11;;;;;;;4.70;2.50;;;8.00;67.70;;;;;;5073266;28;20027;-86
2023/10/08 16:18:38;;;;;;;2.63;2.40;;;7.90;69.70;;;;;;5061961;28;20046;-80
2023/10/08 16:21:09;;;;;;;3.65;2.42;;;7.80;69.90;;;;;;5061914;28;20036;-80
2023/10/08 16:23:35;;;;;;;7.10;2.33;;;7.80;71.10;;;;;;5064777;28;20021;-85
2023/10/08 16:26:02;;;;;;;6.88;4.90;;;7.70;72.20;;;;;;5066106;28;20029;-86
2023/10/08 16:28:30;;;;;;;15.45;8.98;;;7.60;72.90;;;;;;5052776;28;20044;-80
2023/10/08 16:30:58;;;;;;;20.55;10.73;;;7.60;75.30;;;;;;5082983;28;20055;-87
2023/10/08 16:33:24;;;;;;;27.05;13.55;;;7.50;77.10;;;;;;5072681;28;20041;-81
2023/10/08 16:35:53;;;;;;;148.35;67.75;;;7.40;79.70;;;;;;5073520;28;20024;-80
2023/10/08 16:38:19;;;;;;;22.45;12.32;;;7.30;81.70;;;;;;5071936;28;20072;-86
2023/10/08 16:40:45;;;;;;;29.88;14.73;;;7.30;81.90;;;;;;5072812;28;20507;-80
2023/10/08 16:43:14;;;;;;;69.95;31.38;;;7.20;82.90;;;;;;5070148;28;20040;-87
2023/10/08 16:45:40;;;;;;;68.20;30.33;;;7.10;84.70;;;;;;5073085;28;20028;-80
2023/10/08 16:48:07;;;;;;;60.17;28.30;;;7.00;87.70;;;;;;5071198;28;20025;-80
2023/10/08 16:50:33;;;;;;;37.97;18.13;;;6.90;89.60;;;;;;5063012;28;20036;-86
2023/10/08 16:52:59;;;;;;;21.48;10.23;;;6.80;93.80;;;;;;5066567;28;20396;-80
2023/10/08 16:55:25;;;;;;;55.15;27.02;;;6.70;96.50;;;;;;5052499;28;20071;-80
2023/10/08 16:57:51;;;;;;;48.55;23.90;;;6.60;97.20;;;;;;5063196;28;20104;-80
2023/10/08 17:00:17;;;;;;;34.40;18.42;;;6.60;99.00;;;;;;5050603;28;20064;-86
2023/10/08 17:02:43;;;;;;;16.70;8.82;;;6.50;99.90;;;;;;5073072;28;20031;-80
2023/10/08 17:05:13;;;;;;;13.55;6.53;;;6.50;99.90;;;;;;5071980;28;20391;-80
2023/10/08 17:07:40;;;;;;;10.57;6.65;;;6.40;99.90;;;;;;5070084;28;20028;-86
2023/10/08 17:10:06;;;;;;;9.60;6.80;;;6.30;99.90;;;;;;5061953;28;20422;-81
2023/10/08 17:12:33;;;;;;;16.13;8.70;;;6.20;99.90;;;;;;5071379;28;20504;-80
2023/10/08 17:14:59;;;;;;;18.52;10.00;;;6.20;99.90;;;;;;5053537;28;20021;-81
2023/10/08 17:17:25;;;;;;;18.45;11.32;;;6.20;99.90;;;;;;5072788;28;20481;-86
2023/10/08 17:19:51;;;;;;;20.98;12.77;;;6.10;99.90;;;;;;5071889;28;20016;-80
2023/10/08 17:22:17;;;;;;;18.42;10.07;;;6.00;99.90;;;;;;5067097;28;20020;-86
2023/10/08 17:24:44;;;;;;;66.38;32.60;;;6.00;99.90;;;;;;5053818;28;20024;-80
2023/10/08 17:27:12;;;;;;;130.75;63.35;;;5.90;99.90;;;;;;5059071;28;20429;-80
2023/10/08 17:29:39;;;;;;;120.18;57.33;;;5.80;99.90;;;;;;5071533;28;20020;-80
2023/10/08 17:32:06;;;;;;;32.72;17.38;;;5.80;99.90;;;;;;5066778;28;20133;-87
2023/10/08 17:34:32;;;;;;;27.85;13.68;;;5.70;99.90;;;;;;5064103;28;20024;-86
2023/10/08 17:36:59;;;;;;;25.95;14.68;;;5.70;99.90;;;;;;5071532;28;20099;-80
2023/10/08 17:39:25;;;;;;;28.60;15.48;;;5.60;99.90;;;;;;5061960;28;20017;-86
2023/10/08 17:41:51;;;;;;;25.70;15.15;;;5.60;99.90;;;;;;5052930;28;20025;-80
2023/10/08 17:44:19;;;;;;;31.15;16.48;;;5.50;99.90;;;;;;5062625;28;20052;-86
2023/10/08 17:46:45;;;;;;;33.08;18.85;;;5.50;99.90;;;;;;5061842;28;20111;-86
2023/10/08 17:49:12;;;;;;;34.63;17.85;;;5.50;99.90;;;;;;5069331;28;20021;-86
2023/10/08 17:51:39;;;;;;;39.13;19.90;;;5.40;99.90;;;;;;5053460;28;20043;-80
2023/10/08 17:54:06;;;;;;;32.97;17.17;;;5.40;99.90;;;;;;5061314;28;20114;-86
2023/10/08 17:56:32;;;;;;;35.67;17.92;;;5.30;99.90;;;;;;5051459;28;20039;-80
2023/10/08 17:58:59;;;;;;;36.53;19.02;;;5.30;99.90;;;;;;5050260;28;20021;-85
2023/10/08 18:01:25;;;;;;;32.08;17.70;;;5.20;99.90;;;;;;5051380;28;20025;-80
2023/10/08 18:03:51;;;;;;;28.65;16.38;;;5.20;99.90;;;;;;5053031;28;20047;-85
2023/10/08 18:06:17;;;;;;;33.38;16.70;;;5.20;99.90;;;;;;5052086;28;20017;-80
2023/10/08 18:08:44;;;;;;;33.58;18.77;;;5.10;99.90;;;;;;5051644;28;20567;-85
2023/10/08 18:11:10;;;;;;;59.58;32.55;;;5.10;99.90;;;;;;5060673;28;20133;-86
2023/10/08 18:13:43;;;;;;;65.25;37.33;;;5.10;99.90;;;;;;5051646;28;20131;-86
2023/10/08 18:16:11;;;;;;;63.25;33.38;;;5.00;99.90;;;;;;5041293;28;20071;-85
2023/10/08 18:18:38;;;;;;;63.35;32.88;;;5.00;99.90;;;;;;5052938;28;20025;-80
2023/10/08 18:21:14;;;;;;;63.42;33.88;;;4.90;99.90;;;;;;5049062;28;20120;-80
2023/10/08 18:23:41;;;;;;;61.33;34.95;;;4.80;99.90;;;;;;5048065;28;20021;-85
2023/10/08 18:26:09;;;;;;;83.57;42.97;;;4.80;99.90;;;;;;5051803;28;20060;-80
2023/10/08 18:28:37;;;;;;;187.52;78.18;;;4.80;99.90;;;;;;5059237;28;20020;-80
2023/10/08 18:31:06;;;;;;;177.75;78.28;;;4.70;99.90;;;;;;5051969;28;20056;-85
2023/10/08 18:33:37;;;;;;;171.65;77.47;;;4.60;99.90;;;;;;5051059;28;20439;-80
2023/10/08 18:36:05;;;;;;;112.45;49.67;;;4.60;99.90;;;;;;5042672;28;20367;-80
2023/10/08 18:38:31;;;;;;;59.20;29.30;;;4.50;99.90;;;;;;5066445;28;20462;-85
2023/10/08 18:40:57;;;;;;;47.00;22.88;;;4.60;99.90;;;;;;5051443;28;20025;-86
2023/10/08 18:43:23;;;;;;;81.85;38.25;;;4.50;99.90;;;;;;5052584;28;20025;-80
2023/10/08 18:45:49;;;;;;;81.07;38.00;;;4.50;99.90;;;;;;5053348;28;20025;-85
2023/10/08 18:48:15;;;;;;;85.15;41.58;;;4.40;99.90;;;;;;5053875;28;20100;-80
2023/10/08 18:50:42;;;;;;;83.18;38.15;;;4.40;99.90;;;;;;5059624;28;20548;-80
2023/10/08 18:53:08;;;;;;;71.50;35.08;;;4.40;99.90;;;;;;5056764;28;20072;-80
2023/10/08 18:55:34;;;;;;;56.90;27.85;;;4.30;99.90;;;;;;5047544;28;20045;-85